createdAt,value
2022-08-25T19:06:28.585Z,87.30
2022-08-25T19:08:57.639Z,87.70
2022-08-25T19:11:25.625Z,88.90
2022-08-25T19:13:54.012Z,88.00
2022-08-25T19:16:34.437Z,89.70
2022-08-25T19:19:03.650Z,89.40
2022-08-25T19:21:33.232Z,87.80
2022-08-25T19:24:01.238Z,89.10
2022-08-25T19:26:31.611Z,89.70
2022-08-25T19:28:59.814Z,89.70
2022-08-25T19:31:28.529Z,88.30
2022-08-25T19:34:04.682Z,88.00
2022-08-25T19:36:34.186Z,89.40
2022-08-25T19:39:02.943Z,88.80
2022-08-25T19:41:34.900Z,88.20
2022-08-25T19:44:03.304Z,89.80
2022-08-25T19:46:36.186Z,87.80
2022-08-25T19:49:08.829Z,89.00
2022-08-25T19:51:39.978Z,89.30
2022-08-25T19:54:10.264Z,86.40
2022-08-25T19:56:43.844Z,86.40
2022-08-25T19:59:24.617Z,86.00
2022-08-25T20:01:52.705Z,86.10
2022-08-25T20:04:20.903Z,86.10
2022-08-25T20:06:55.538Z,86.20
2022-08-25T20:09:38.874Z,85.60
2022-08-25T20:12:10.743Z,90.70
2022-08-25T20:14:38.940Z,90.70
2022-08-25T20:17:23.987Z,90.10
2022-08-25T20:19:54.259Z,89.50
2022-08-25T20:22:26.807Z,89.60
2022-08-25T20:24:58.037Z,89.50
2022-08-25T20:27:34.771Z,90.60
2022-08-25T20:30:03.525Z,91.00
2022-08-25T20:32:33.406Z,90.70
2022-08-25T20:35:02.077Z,90.10
2022-08-25T20:37:31.707Z,90.40
2022-08-25T20:40:02.265Z,90.20
2022-08-25T20:42:30.444Z,91.90
2022-08-25T20:44:59.020Z,91.50
2022-08-25T20:47:27.146Z,91.50
2022-08-25T20:49:55.103Z,91.80
2022-08-25T20:52:23.094Z,92.80
2022-08-25T20:54:55.121Z,93.20
2022-08-25T20:57:26.991Z,93.10
2022-08-25T20:59:57.996Z,93.30
2022-08-25T21:02:27.544Z,93.70
2022-08-25T21:04:57.056Z,93.70
2022-08-25T21:07:26.065Z,93.10
2022-08-25T21:09:55.410Z,93.60
2022-08-25T21:12:24.684Z,94.50
2022-08-25T21:14:52.789Z,94.70
2022-08-25T21:17:20.791Z,95.30
2022-08-25T21:22:21.655Z,95.60
2022-08-25T21:24:51.458Z,96.10
2022-08-25T21:27:20.712Z,96.50
2022-08-25T21:29:54.838Z,96.20
2022-08-25T21:32:24.043Z,96.50
2022-08-25T21:34:53.680Z,97.60
2022-08-25T21:37:21.684Z,97.80
2022-08-25T21:39:49.746Z,97.20
2022-08-25T21:42:17.844Z,97.40
2022-08-25T21:44:47.389Z,97.60
2022-08-25T21:47:15.787Z,98.30
2022-08-25T21:49:49.733Z,98.60
2022-08-25T21:52:17.963Z,99.10
2022-08-25T21:54:47.182Z,99.20
2022-08-25T21:57:17.837Z,99.40
2022-08-25T21:59:48.486Z,99.90
2022-08-25T22:02:21.860Z,99.90
2022-08-25T22:04:52.659Z,99.90
2022-08-25T22:07:22.311Z,99.90
2022-08-25T22:09:53.146Z,99.90
2022-08-25T22:12:21.080Z,99.90
2022-08-25T22:14:51.915Z,99.90
2022-08-25T22:17:24.143Z,99.90
2022-08-25T22:19:53.925Z,99.90
2022-08-25T22:22:22.584Z,99.90
2022-08-25T22:24:53.128Z,99.90
2022-08-25T22:27:23.396Z,99.90
2022-08-25T22:29:53.089Z,99.90
2022-08-25T22:32:21.432Z,99.90
2022-08-25T22:34:49.916Z,99.90
2022-08-25T22:37:18.238Z,99.90
2022-08-25T22:39:47.536Z,99.90
2022-08-25T22:42:16.255Z,99.90
2022-08-25T22:44:44.328Z,99.90
2022-08-25T22:47:13.672Z,99.90
2022-08-25T22:49:41.723Z,99.90
2022-08-25T22:52:12.668Z,99.90
2022-08-25T22:54:42.107Z,99.90
2022-08-25T22:57:15.066Z,99.90
2022-08-25T22:59:43.091Z,99.90
2022-08-25T23:02:11.297Z,99.90
2022-08-25T23:04:41.176Z,99.90
2022-08-25T23:07:12.369Z,99.90
2022-08-25T23:09:40.544Z,99.90
2022-08-25T23:12:09.387Z,99.90
2022-08-25T23:14:38.736Z,99.90
2022-08-25T23:17:10.269Z,99.90
2022-08-25T23:19:38.177Z,99.90
2022-08-25T23:22:09.415Z,99.90
2022-08-25T23:24:38.912Z,99.90
2022-08-25T23:27:12.308Z,99.90
2022-08-25T23:29:43.093Z,99.90
2022-08-25T23:32:15.966Z,99.90
2022-08-25T23:34:46.592Z,99.90
